sensor_id;sensor_type;location;lat;lon;timestamp;temperature;humidity
27226;DHT22;14732;51.074;3.788;2023-09-07T00:01:26;20.60;99.90
27226;DHT22;14732;51.074;3.788;2023-09-07T00:03:52;20.60;99.90
27226;DHT22;14732;51.074;3.788;2023-09-07T00:06:17;20.50;99.90
27226;DHT22;14732;51.074;3.788;2023-09-07T00:08:44;20.50;99.90
27226;DHT22;14732;51.074;3.788;2023-09-07T00:11:10;20.50;99.90
27226;DHT22;14732;51.074;3.788;2023-09-07T00:13:36;20.40;99.90
27226;DHT22;14732;51.074;3.788;2023-09-07T00:16:03;20.40;99.90
27226;DHT22;14732;51.074;3.788;2023-09-07T00:18:30;20.40;99.90
27226;DHT22;14732;51.074;3.788;2023-09-07T00:20:56;20.30;99.90
27226;DHT22;14732;51.074;3.788;2023-09-07T00:23:22;20.30;99.90
27226;DHT22;14732;51.074;3.788;2023-09-07T00:25:47;20.40;99.90
27226;DHT22;14732;51.074;3.788;2023-09-07T00:28:13;20.30;99.90
27226;DHT22;14732;51.074;3.788;2023-09-07T00:30:39;20.30;99.90
27226;DHT22;14732;51.074;3.788;2023-09-07T00:33:05;20.20;99.90
27226;DHT22;14732;51.074;3.788;2023-09-07T00:35:31;20.20;99.90
27226;DHT22;14732;51.074;3.788;2023-09-07T00:37:57;20.10;99.90
27226;DHT22;14732;51.074;3.788;2023-09-07T00:40:23;20.20;99.90
27226;DHT22;14732;51.074;3.788;2023-09-07T00:42:49;20.10;99.90
27226;DHT22;14732;51.074;3.788;2023-09-07T00:45:15;20.00;99.90
27226;DHT22;14732;51.074;3.788;2023-09-07T00:47:41;20.00;99.90
27226;DHT22;14732;51.074;3.788;2023-09-07T00:50:07;19.90;99.90
27226;DHT22;14732;51.074;3.788;2023-09-07T00:52:34;19.90;99.90
27226;DHT22;14732;51.074;3.788;2023-09-07T00:55:04;19.90;99.90
27226;DHT22;14732;51.074;3.788;2023-09-07T00:57:30;19.80;99.90
27226;DHT22;14732;51.074;3.788;2023-09-07T00:59:55;19.80;99.90
27226;DHT22;14732;51.074;3.788;2023-09-07T01:02:21;19.80;99.90
27226;DHT22;14732;51.074;3.788;2023-09-07T01:04:47;19.70;99.90
27226;DHT22;14732;51.074;3.788;2023-09-07T01:07:25;19.70;99.90
27226;DHT22;14732;51.074;3.788;2023-09-07T01:09:56;19.80;99.90
27226;DHT22;14732;51.074;3.788;2023-09-07T01:12:22;19.70;99.90
27226;DHT22;14732;51.074;3.788;2023-09-07T01:14:47;19.80;99.90
27226;DHT22;14732;51.074;3.788;2023-09-07T01:17:13;19.80;99.90
27226;DHT22;14732;51.074;3.788;2023-09-07T01:19:39;19.70;99.90
27226;DHT22;14732;51.074;3.788;2023-09-07T01:22:09;19.70;99.90
27226;DHT22;14732;51.074;3.788;2023-09-07T01:24:37;19.60;99.90
27226;DHT22;14732;51.074;3.788;2023-09-07T01:27:05;19.50;99.90
27226;DHT22;14732;51.074;3.788;2023-09-07T01:29:30;19.50;99.90
27226;DHT22;14732;51.074;3.788;2023-09-07T01:31:56;19.50;99.90
27226;DHT22;14732;51.074;3.788;2023-09-07T01:34:23;19.60;99.90
27226;DHT22;14732;51.074;3.788;2023-09-07T01:36:49;19.60;99.90
27226;DHT22;14732;51.074;3.788;2023-09-07T01:39:15;19.50;99.90
27226;DHT22;14732;51.074;3.788;2023-09-07T01:41:42;19.40;99.90
27226;DHT22;14732;51.074;3.788;2023-09-07T01:44:08;19.30;99.90
27226;DHT22;14732;51.074;3.788;2023-09-07T01:46:33;19.30;99.90
27226;DHT22;14732;51.074;3.788;2023-09-07T01:49:01;19.30;99.90
27226;DHT22;14732;51.074;3.788;2023-09-07T01:51:27;19.30;99.90
27226;DHT22;14732;51.074;3.788;2023-09-07T01:53:53;19.40;99.90
27226;DHT22;14732;51.074;3.788;2023-09-07T01:56:19;19.40;99.90
27226;DHT22;14732;51.074;3.788;2023-09-07T01:58:45;19.30;99.90
27226;DHT22;14732;51.074;3.788;2023-09-07T02:01:29;19.30;99.90
27226;DHT22;14732;51.074;3.788;2023-09-07T02:03:55;19.30;99.90
27226;DHT22;14732;51.074;3.788;2023-09-07T02:06:21;19.20;99.90
27226;DHT22;14732;51.074;3.788;2023-09-07T02:08:46;19.20;99.90
27226;DHT22;14732;51.074;3.788;2023-09-07T02:11:12;19.30;99.90
27226;DHT22;14732;51.074;3.788;2023-09-07T02:13:41;19.30;99.90
27226;DHT22;14732;51.074;3.788;2023-09-07T02:16:07;19.20;99.90
27226;DHT22;14732;51.074;3.788;2023-09-07T02:18:33;19.10;99.90
27226;DHT22;14732;51.074;3.788;2023-09-07T02:21:05;19.10;99.90
27226;DHT22;14732;51.074;3.788;2023-09-07T02:23:32;19.10;99.90
27226;DHT22;14732;51.074;3.788;2023-09-07T02:25:58;19.10;99.90
27226;DHT22;14732;51.074;3.788;2023-09-07T02:28:27;19.00;99.90
27226;DHT22;14732;51.074;3.788;2023-09-07T02:30:52;18.90;99.90
27226;DHT22;14732;51.074;3.788;2023-09-07T02:33:18;18.90;99.90
27226;DHT22;14732;51.074;3.788;2023-09-07T02:35:44;19.00;99.90
27226;DHT22;14732;51.074;3.788;2023-09-07T02:38:10;18.90;99.90
27226;DHT22;14732;51.074;3.788;2023-09-07T02:40:45;19.00;99.90
27226;DHT22;14732;51.074;3.788;2023-09-07T02:43:11;18.90;99.90
27226;DHT22;14732;51.074;3.788;2023-09-07T02:45:37;18.80;99.90
27226;DHT22;14732;51.074;3.788;2023-09-07T02:48:04;18.70;99.90
27226;DHT22;14732;51.074;3.788;2023-09-07T02:50:31;18.70;99.90
27226;DHT22;14732;51.074;3.788;2023-09-07T02:52:57;18.60;99.90
27226;DHT22;14732;51.074;3.788;2023-09-07T02:55:23;18.60;99.90
27226;DHT22;14732;51.074;3.788;2023-09-07T02:57:48;18.60;99.90
27226;DHT22;14732;51.074;3.788;2023-09-07T03:00:14;18.60;99.90
27226;DHT22;14732;51.074;3.788;2023-09-07T03:02:43;18.60;99.90
27226;DHT22;14732;51.074;3.788;2023-09-07T03:05:09;18.60;99.90
27226;DHT22;14732;51.074;3.788;2023-09-07T03:07:34;18.70;99.90
27226;DHT22;14732;51.074;3.788;2023-09-07T03:10:00;18.60;99.90
27226;DHT22;14732;51.074;3.788;2023-09-07T03:12:27;18.50;99.90
27226;DHT22;14732;51.074;3.788;2023-09-07T03:14:53;18.50;99.90
27226;DHT22;14732;51.074;3.788;2023-09-07T03:17:19;18.40;99.90
27226;DHT22;14732;51.074;3.788;2023-09-07T03:19:46;18.40;99.90
27226;DHT22;14732;51.074;3.788;2023-09-07T03:22:12;18.40;99.90
27226;DHT22;14732;51.074;3.788;2023-09-07T03:24:38;18.40;99.90
27226;DHT22;14732;51.074;3.788;2023-09-07T03:27:04;18.40;99.90
27226;DHT22;14732;51.074;3.788;2023-09-07T03:29:31;18.40;99.90
27226;DHT22;14732;51.074;3.788;2023-09-07T03:31:59;18.30;99.90
27226;DHT22;14732;51.074;3.788;2023-09-07T03:34:25;18.30;99.90
27226;DHT22;14732;51.074;3.788;2023-09-07T03:36:50;18.30;99.90
27226;DHT22;14732;51.074;3.788;2023-09-07T03:39:16;18.30;99.90
27226;DHT22;14732;51.074;3.788;2023-09-07T03:41:44;18.40;99.90
27226;DHT22;14732;51.074;3.788;2023-09-07T03:44:10;18.30;99.90
27226;DHT22;14732;51.074;3.788;2023-09-07T03:46:35;18.30;99.90
27226;DHT22;14732;51.074;3.788;2023-09-07T03:49:01;18.30;99.90
27226;DHT22;14732;51.074;3.788;2023-09-07T03:51:27;18.40;99.90
27226;DHT22;14732;51.074;3.788;2023-09-07T03:53:52;18.30;99.90
27226;DHT22;14732;51.074;3.788;2023-09-07T03:56:18;18.30;99.90
27226;DHT22;14732;51.074;3.788;2023-09-07T03:58:43;18.20;99.90
27226;DHT22;14732;51.074;3.788;2023-09-07T04:01:09;18.20;99.90
27226;DHT22;14732;51.074;3.788;2023-09-07T04:03:35;18.20;99.90
27226;DHT22;14732;51.074;3.788;2023-09-07T04:06:00;18.10;99.90
27226;DHT22;14732;51.074;3.788;2023-09-07T04:08:26;18.10;99.90
27226;DHT22;14732;51.074;3.788;2023-09-07T04:10:52;18.10;99.90
27226;DHT22;14732;51.074;3.788;2023-09-07T04:13:17;18.10;99.90
27226;DHT22;14732;51.074;3.788;2023-09-07T04:15:46;18.00;99.90
27226;DHT22;14732;51.074;3.788;2023-09-07T04:18:13;18.10;99.90
27226;DHT22;14732;51.074;3.788;2023-09-07T04:20:40;18.00;99.90
27226;DHT22;14732;51.074;3.788;2023-09-07T04:23:06;17.90;99.90
27226;DHT22;14732;51.074;3.788;2023-09-07T04:25:32;17.90;99.90
27226;DHT22;14732;51.074;3.788;2023-09-07T04:28:00;17.90;99.90
27226;DHT22;14732;51.074;3.788;2023-09-07T04:30:26;17.90;99.90
27226;DHT22;14732;51.074;3.788;2023-09-07T04:32:52;18.00;99.90
27226;DHT22;14732;51.074;3.788;2023-09-07T04:35:18;17.90;99.90
27226;DHT22;14732;51.074;3.788;2023-09-07T04:37:44;17.90;99.90
27226;DHT22;14732;51.074;3.788;2023-09-07T04:40:10;17.80;99.90
27226;DHT22;14732;51.074;3.788;2023-09-07T04:42:36;17.80;99.90
27226;DHT22;14732;51.074;3.788;2023-09-07T04:45:04;17.70;99.90
27226;DHT22;14732;51.074;3.788;2023-09-07T04:47:30;17.70;99.90
27226;DHT22;14732;51.074;3.788;2023-09-07T04:49:56;17.70;99.90
27226;DHT22;14732;51.074;3.788;2023-09-07T04:52:22;17.70;99.90
27226;DHT22;14732;51.074;3.788;2023-09-07T04:54:47;17.80;99.90
27226;DHT22;14732;51.074;3.788;2023-09-07T04:57:16;17.70;99.90
27226;DHT22;14732;51.074;3.788;2023-09-07T04:59:43;17.70;99.90
27226;DHT22;14732;51.074;3.788;2023-09-07T05:02:09;17.70;99.90
27226;DHT22;14732;51.074;3.788;2023-09-07T05:04:34;17.70;99.90
27226;DHT22;14732;51.074;3.788;2023-09-07T05:07:00;17.70;99.90
27226;DHT22;14732;51.074;3.788;2023-09-07T05:09:26;17.70;99.90
27226;DHT22;14732;51.074;3.788;2023-09-07T05:11:54;17.70;99.90
27226;DHT22;14732;51.074;3.788;2023-09-07T05:14:20;17.70;99.90
27226;DHT22;14732;51.074;3.788;2023-09-07T05:16:45;17.70;99.90
27226;DHT22;14732;51.074;3.788;2023-09-07T05:19:11;17.70;99.90
27226;DHT22;14732;51.074;3.788;2023-09-07T05:21:37;17.70;99.90
27226;DHT22;14732;51.074;3.788;2023-09-07T05:24:02;17.70;99.90
27226;DHT22;14732;51.074;3.788;2023-09-07T05:26:29;17.70;99.90
27226;DHT22;14732;51.074;3.788;2023-09-07T05:28:54;17.70;99.90
27226;DHT22;14732;51.074;3.788;2023-09-07T05:31:20;17.70;99.90
27226;DHT22;14732;51.074;3.788;2023-09-07T05:33:46;17.70;99.90
27226;DHT22;14732;51.074;3.788;2023-09-07T05:36:11;17.70;99.90
27226;DHT22;14732;51.074;3.788;2023-09-07T05:38:37;17.70;99.90
27226;DHT22;14732;51.074;3.788;2023-09-07T05:41:03;17.70;99.90
27226;DHT22;14732;51.074;3.788;2023-09-07T05:43:29;17.60;99.90
27226;DHT22;14732;51.074;3.788;2023-09-07T05:45:54;17.60;99.90
27226;DHT22;14732;51.074;3.788;2023-09-07T05:48:20;17.80;99.90
27226;DHT22;14732;51.074;3.788;2023-09-07T05:50:46;17.80;99.90
27226;DHT22;14732;51.074;3.788;2023-09-07T05:53:11;17.80;99.90
27226;DHT22;14732;51.074;3.788;2023-09-07T05:55:37;17.80;99.90
27226;DHT22;14732;51.074;3.788;2023-09-07T05:58:07;17.90;99.90
27226;DHT22;14732;51.074;3.788;2023-09-07T06:00:35;18.00;99.90
27226;DHT22;14732;51.074;3.788;2023-09-07T06:03:01;18.20;99.90
27226;DHT22;14732;51.074;3.788;2023-09-07T06:05:27;18.40;99.90
27226;DHT22;14732;51.074;3.788;2023-09-07T06:07:53;18.50;99.90
27226;DHT22;14732;51.074;3.788;2023-09-07T06:10:18;18.60;99.90
27226;DHT22;14732;51.074;3.788;2023-09-07T06:12:45;18.80;99.90
27226;DHT22;14732;51.074;3.788;2023-09-07T06:15:10;19.00;99.90
27226;DHT22;14732;51.074;3.788;2023-09-07T06:17:36;19.10;99.90
27226;DHT22;14732;51.074;3.788;2023-09-07T06:20:02;19.20;99.90
27226;DHT22;14732;51.074;3.788;2023-09-07T06:22:28;19.20;99.90
27226;DHT22;14732;51.074;3.788;2023-09-07T06:24:54;19.20;99.90
27226;DHT22;14732;51.074;3.788;2023-09-07T06:27:19;19.40;99.90
27226;DHT22;14732;51.074;3.788;2023-09-07T06:29:45;19.40;99.90
27226;DHT22;14732;51.074;3.788;2023-09-07T06:32:11;19.50;99.90
27226;DHT22;14732;51.074;3.788;2023-09-07T06:34:36;19.60;99.90
27226;DHT22;14732;51.074;3.788;2023-09-07T06:37:02;19.70;99.90
27226;DHT22;14732;51.074;3.788;2023-09-07T06:39:28;19.80;99.90
27226;DHT22;14732;51.074;3.788;2023-09-07T06:41:53;19.90;99.90
27226;DHT22;14732;51.074;3.788;2023-09-07T06:44:19;19.90;99.90
27226;DHT22;14732;51.074;3.788;2023-09-07T06:46:44;20.00;99.90
27226;DHT22;14732;51.074;3.788;2023-09-07T06:49:10;20.00;99.90
27226;DHT22;14732;51.074;3.788;2023-09-07T06:51:36;20.10;99.90
27226;DHT22;14732;51.074;3.788;2023-09-07T06:54:01;20.10;99.90
27226;DHT22;14732;51.074;3.788;2023-09-07T06:56:27;20.10;99.90
27226;DHT22;14732;51.074;3.788;2023-09-07T06:58:54;20.10;99.90
27226;DHT22;14732;51.074;3.788;2023-09-07T07:01:19;20.10;99.90
27226;DHT22;14732;51.074;3.788;2023-09-07T07:03:45;20.10;99.90
27226;DHT22;14732;51.074;3.788;2023-09-07T07:06:11;20.40;99.90
27226;DHT22;14732;51.074;3.788;2023-09-07T07:08:36;20.40;99.90
27226;DHT22;14732;51.074;3.788;2023-09-07T07:11:02;20.30;99.90
27226;DHT22;14732;51.074;3.788;2023-09-07T07:13:27;20.40;99.90
27226;DHT22;14732;51.074;3.788;2023-09-07T07:15:53;20.20;99.90
27226;DHT22;14732;51.074;3.788;2023-09-07T07:18:19;20.40;99.90
27226;DHT22;14732;51.074;3.788;2023-09-07T07:20:45;20.80;99.90
27226;DHT22;14732;51.074;3.788;2023-09-07T07:23:11;20.60;99.90
27226;DHT22;14732;51.074;3.788;2023-09-07T07:25:38;20.50;99.90
27226;DHT22;14732;51.074;3.788;2023-09-07T07:28:05;20.50;99.90
27226;DHT22;14732;51.074;3.788;2023-09-07T07:30:34;20.60;99.90
27226;DHT22;14732;51.074;3.788;2023-09-07T07:33:02;20.70;99.90
27226;DHT22;14732;51.074;3.788;2023-09-07T07:35:32;20.70;99.90
27226;DHT22;14732;51.074;3.788;2023-09-07T07:37:57;21.00;99.90
27226;DHT22;14732;51.074;3.788;2023-09-07T07:40:23;21.20;99.90
27226;DHT22;14732;51.074;3.788;2023-09-07T07:42:52;21.00;99.90
27226;DHT22;14732;51.074;3.788;2023-09-07T07:45:17;21.00;99.90
27226;DHT22;14732;51.074;3.788;2023-09-07T07:47:48;20.90;99.90
27226;DHT22;14732;51.074;3.788;2023-09-07T07:50:14;21.20;99.90
27226;DHT22;14732;51.074;3.788;2023-09-07T07:52:40;21.40;99.90
27226;DHT22;14732;51.074;3.788;2023-09-07T07:55:06;21.60;99.90
27226;DHT22;14732;51.074;3.788;2023-09-07T07:57:32;21.80;99.90
27226;DHT22;14732;51.074;3.788;2023-09-07T07:59:58;22.10;99.90
27226;DHT22;14732;51.074;3.788;2023-09-07T08:02:23;22.40;99.90
27226;DHT22;14732;51.074;3.788;2023-09-07T08:04:49;22.10;99.90
27226;DHT22;14732;51.074;3.788;2023-09-07T08:07:15;22.00;99.90
27226;DHT22;14732;51.074;3.788;2023-09-07T08:09:40;21.90;99.90
27226;DHT22;14732;51.074;3.788;2023-09-07T08:12:06;22.10;99.90
27226;DHT22;14732;51.074;3.788;2023-09-07T08:14:32;22.30;99.90
27226;DHT22;14732;51.074;3.788;2023-09-07T08:16:58;22.40;99.90
27226;DHT22;14732;51.074;3.788;2023-09-07T08:19:24;22.50;99.90
27226;DHT22;14732;51.074;3.788;2023-09-07T08:21:51;22.50;99.90
27226;DHT22;14732;51.074;3.788;2023-09-07T08:24:16;22.40;99.90
27226;DHT22;14732;51.074;3.788;2023-09-07T08:26:43;22.20;99.90
27226;DHT22;14732;51.074;3.788;2023-09-07T08:29:09;22.40;99.90
27226;DHT22;14732;51.074;3.788;2023-09-07T08:31:36;22.50;99.90
27226;DHT22;14732;51.074;3.788;2023-09-07T08:34:04;22.80;99.90
27226;DHT22;14732;51.074;3.788;2023-09-07T08:36:30;22.70;99.90
27226;DHT22;14732;51.074;3.788;2023-09-07T08:38:59;22.80;99.90
27226;DHT22;14732;51.074;3.788;2023-09-07T08:41:27;23.10;99.90
27226;DHT22;14732;51.074;3.788;2023-09-07T08:43:54;23.20;99.90
27226;DHT22;14732;51.074;3.788;2023-09-07T08:46:22;23.40;99.90
27226;DHT22;14732;51.074;3.788;2023-09-07T08:48:52;23.40;99.90
27226;DHT22;14732;51.074;3.788;2023-09-07T08:51:20;23.50;99.90
27226;DHT22;14732;51.074;3.788;2023-09-07T08:53:46;23.90;99.90
27226;DHT22;14732;51.074;3.788;2023-09-07T08:56:12;23.80;99.90
27226;DHT22;14732;51.074;3.788;2023-09-07T08:58:39;24.10;99.90
27226;DHT22;14732;51.074;3.788;2023-09-07T09:01:07;24.20;99.90
27226;DHT22;14732;51.074;3.788;2023-09-07T09:03:35;24.40;99.90
27226;DHT22;14732;51.074;3.788;2023-09-07T09:06:01;24.30;99.90
27226;DHT22;14732;51.074;3.788;2023-09-07T09:08:27;24.50;99.90
27226;DHT22;14732;51.074;3.788;2023-09-07T09:11:02;24.70;99.90
27226;DHT22;14732;51.074;3.788;2023-09-07T09:13:32;25.40;99.90
27226;DHT22;14732;51.074;3.788;2023-09-07T09:16:02;25.90;99.90
27226;DHT22;14732;51.074;3.788;2023-09-07T09:18:28;26.90;99.90
27226;DHT22;14732;51.074;3.788;2023-09-07T09:20:57;28.40;99.90
27226;DHT22;14732;51.074;3.788;2023-09-07T09:23:35;30.20;99.90
27226;DHT22;14732;51.074;3.788;2023-09-07T09:26:02;31.60;99.90
27226;DHT22;14732;51.074;3.788;2023-09-07T09:28:30;31.00;99.90
27226;DHT22;14732;51.074;3.788;2023-09-07T09:30:58;32.10;99.90
27226;DHT22;14732;51.074;3.788;2023-09-07T09:33:24;31.70;99.90
27226;DHT22;14732;51.074;3.788;2023-09-07T09:35:51;32.00;99.90
27226;DHT22;14732;51.074;3.788;2023-09-07T09:38:18;31.80;99.90
27226;DHT22;14732;51.074;3.788;2023-09-07T09:40:44;31.40;99.90
27226;DHT22;14732;51.074;3.788;2023-09-07T09:43:12;29.90;99.90
27226;DHT22;14732;51.074;3.788;2023-09-07T09:45:38;28.60;99.90
27226;DHT22;14732;51.074;3.788;2023-09-07T09:48:05;28.20;99.90
27226;DHT22;14732;51.074;3.788;2023-09-07T09:50:32;27.30;99.90
27226;DHT22;14732;51.074;3.788;2023-09-07T09:53:05;27.30;99.90
27226;DHT22;14732;51.074;3.788;2023-09-07T09:55:32;27.10;99.90
27226;DHT22;14732;51.074;3.788;2023-09-07T09:57:58;27.20;99.90
27226;DHT22;14732;51.074;3.788;2023-09-07T10:00:24;27.40;99.90
27226;DHT22;14732;51.074;3.788;2023-09-07T10:03:12;27.20;99.90
27226;DHT22;14732;51.074;3.788;2023-09-07T10:05:39;27.20;99.90
27226;DHT22;14732;51.074;3.788;2023-09-07T10:08:13;27.10;99.90
27226;DHT22;14732;51.074;3.788;2023-09-07T10:10:41;27.00;99.90
27226;DHT22;14732;51.074;3.788;2023-09-07T10:13:07;26.80;99.90
27226;DHT22;14732;51.074;3.788;2023-09-07T10:15:33;26.70;99.90
27226;DHT22;14732;51.074;3.788;2023-09-07T10:18:15;27.00;99.90
27226;DHT22;14732;51.074;3.788;2023-09-07T10:20:58;26.90;99.90
27226;DHT22;14732;51.074;3.788;2023-09-07T10:23:36;26.90;99.90
27226;DHT22;14732;51.074;3.788;2023-09-07T10:26:03;26.90;99.90
27226;DHT22;14732;51.074;3.788;2023-09-07T10:28:32;27.10;99.90
27226;DHT22;14732;51.074;3.788;2023-09-07T10:33:35;26.50;99.90
27226;DHT22;14732;51.074;3.788;2023-09-07T10:36:02;26.60;99.90
27226;DHT22;14732;51.074;3.788;2023-09-07T10:38:28;26.10;99.90
27226;DHT22;14732;51.074;3.788;2023-09-07T10:40:58;26.40;99.90
27226;DHT22;14732;51.074;3.788;2023-09-07T10:43:29;26.60;99.90
27226;DHT22;14732;51.074;3.788;2023-09-07T10:45:55;26.80;99.90
27226;DHT22;14732;51.074;3.788;2023-09-07T10:48:23;26.80;99.90
27226;DHT22;14732;51.074;3.788;2023-09-07T10:50:48;26.70;99.90
27226;DHT22;14732;51.074;3.788;2023-09-07T10:53:15;27.10;99.90
27226;DHT22;14732;51.074;3.788;2023-09-07T10:55:49;27.50;99.90
27226;DHT22;14732;51.074;3.788;2023-09-07T10:58:27;27.70;99.90
27226;DHT22;14732;51.074;3.788;2023-09-07T11:00:54;27.70;99.90
27226;DHT22;14732;51.074;3.788;2023-09-07T11:03:20;27.50;99.90
27226;DHT22;14732;51.074;3.788;2023-09-07T11:05:46;27.50;99.90
27226;DHT22;14732;51.074;3.788;2023-09-07T11:08:12;27.80;99.90
27226;DHT22;14732;51.074;3.788;2023-09-07T11:10:38;27.60;99.90
27226;DHT22;14732;51.074;3.788;2023-09-07T11:13:04;27.50;99.90
27226;DHT22;14732;51.074;3.788;2023-09-07T11:15:33;27.40;99.90
27226;DHT22;14732;51.074;3.788;2023-09-07T11:18:08;27.30;99.90
27226;DHT22;14732;51.074;3.788;2023-09-07T11:20:37;27.10;99.90
27226;DHT22;14732;51.074;3.788;2023-09-07T11:23:06;27.40;99.90
27226;DHT22;14732;51.074;3.788;2023-09-07T11:25:36;27.50;99.90
27226;DHT22;14732;51.074;3.788;2023-09-07T11:28:03;27.60;99.90
27226;DHT22;14732;51.074;3.788;2023-09-07T11:30:29;27.80;99.90
27226;DHT22;14732;51.074;3.788;2023-09-07T11:33:05;28.00;99.90
27226;DHT22;14732;51.074;3.788;2023-09-07T11:35:32;28.00;99.90
27226;DHT22;14732;51.074;3.788;2023-09-07T11:38:02;28.10;99.90
27226;DHT22;14732;51.074;3.788;2023-09-07T11:40:30;28.20;99.90
27226;DHT22;14732;51.074;3.788;2023-09-07T11:42:56;28.00;99.90
27226;DHT22;14732;51.074;3.788;2023-09-07T11:45:22;28.00;99.90
27226;DHT22;14732;51.074;3.788;2023-09-07T11:47:48;28.10;99.90
27226;DHT22;14732;51.074;3.788;2023-09-07T11:50:16;28.20;99.90
27226;DHT22;14732;51.074;3.788;2023-09-07T11:52:42;28.10;99.90
27226;DHT22;14732;51.074;3.788;2023-09-07T11:55:08;28.00;99.90
27226;DHT22;14732;51.074;3.788;2023-09-07T11:57:38;27.90;99.90
27226;DHT22;14732;51.074;3.788;2023-09-07T12:00:10;28.00;99.90
27226;DHT22;14732;51.074;3.788;2023-09-07T12:02:38;27.70;99.90
27226;DHT22;14732;51.074;3.788;2023-09-07T12:05:05;27.90;99.90
27226;DHT22;14732;51.074;3.788;2023-09-07T12:07:32;28.10;99.90
27226;DHT22;14732;51.074;3.788;2023-09-07T12:09:58;28.20;99.90
27226;DHT22;14732;51.074;3.788;2023-09-07T12:12:23;27.90;99.90
27226;DHT22;14732;51.074;3.788;2023-09-07T12:14:49;27.80;99.90
27226;DHT22;14732;51.074;3.788;2023-09-07T12:17:15;28.10;99.90
27226;DHT22;14732;51.074;3.788;2023-09-07T12:19:40;28.40;99.90
27226;DHT22;14732;51.074;3.788;2023-09-07T12:22:11;28.50;99.90
27226;DHT22;14732;51.074;3.788;2023-09-07T12:24:37;28.40;99.90
27226;DHT22;14732;51.074;3.788;2023-09-07T12:27:03;28.20;99.90
27226;DHT22;14732;51.074;3.788;2023-09-07T12:29:29;27.80;99.90
27226;DHT22;14732;51.074;3.788;2023-09-07T12:31:54;28.20;99.90
27226;DHT22;14732;51.074;3.788;2023-09-07T12:34:20;27.80;99.90
27226;DHT22;14732;51.074;3.788;2023-09-07T12:36:46;28.00;99.90
27226;DHT22;14732;51.074;3.788;2023-09-07T12:39:11;27.90;99.90
27226;DHT22;14732;51.074;3.788;2023-09-07T12:41:38;27.80;99.90
27226;DHT22;14732;51.074;3.788;2023-09-07T12:44:04;28.30;99.90
27226;DHT22;14732;51.074;3.788;2023-09-07T12:46:31;28.40;99.90
27226;DHT22;14732;51.074;3.788;2023-09-07T12:48:56;28.50;99.90
27226;DHT22;14732;51.074;3.788;2023-09-07T12:51:22;28.70;99.90
27226;DHT22;14732;51.074;3.788;2023-09-07T12:53:47;28.80;99.90
27226;DHT22;14732;51.074;3.788;2023-09-07T12:56:13;28.70;99.90
27226;DHT22;14732;51.074;3.788;2023-09-07T12:58:41;28.70;99.90
27226;DHT22;14732;51.074;3.788;2023-09-07T13:01:07;28.40;99.90
27226;DHT22;14732;51.074;3.788;2023-09-07T13:03:35;28.50;99.90
27226;DHT22;14732;51.074;3.788;2023-09-07T13:06:01;28.70;99.90
27226;DHT22;14732;51.074;3.788;2023-09-07T13:08:28;28.70;99.90
27226;DHT22;14732;51.074;3.788;2023-09-07T13:10:55;28.70;99.90
27226;DHT22;14732;51.074;3.788;2023-09-07T13:13:22;28.60;99.90
27226;DHT22;14732;51.074;3.788;2023-09-07T13:15:50;28.80;99.90
27226;DHT22;14732;51.074;3.788;2023-09-07T13:18:15;28.90;99.90
27226;DHT22;14732;51.074;3.788;2023-09-07T13:20:41;29.30;99.90
27226;DHT22;14732;51.074;3.788;2023-09-07T13:23:07;29.50;99.90
27226;DHT22;14732;51.074;3.788;2023-09-07T13:25:33;29.30;99.90
27226;DHT22;14732;51.074;3.788;2023-09-07T13:27:58;29.30;99.90
27226;DHT22;14732;51.074;3.788;2023-09-07T13:30:24;29.20;99.90
27226;DHT22;14732;51.074;3.788;2023-09-07T13:32:50;29.00;99.90
27226;DHT22;14732;51.074;3.788;2023-09-07T13:35:16;29.10;99.90
27226;DHT22;14732;51.074;3.788;2023-09-07T13:37:42;29.20;99.90
27226;DHT22;14732;51.074;3.788;2023-09-07T13:40:08;29.20;99.90
27226;DHT22;14732;51.074;3.788;2023-09-07T13:42:34;29.20;99.90
27226;DHT22;14732;51.074;3.788;2023-09-07T13:45:00;28.90;99.90
27226;DHT22;14732;51.074;3.788;2023-09-07T13:47:26;28.80;99.90
27226;DHT22;14732;51.074;3.788;2023-09-07T13:49:51;28.90;99.90
27226;DHT22;14732;51.074;3.788;2023-09-07T13:52:17;29.10;99.90
27226;DHT22;14732;51.074;3.788;2023-09-07T13:54:43;28.80;99.90
27226;DHT22;14732;51.074;3.788;2023-09-07T13:57:09;29.10;99.90
27226;DHT22;14732;51.074;3.788;2023-09-07T13:59:35;29.10;99.90
27226;DHT22;14732;51.074;3.788;2023-09-07T14:02:01;29.00;99.90
27226;DHT22;14732;51.074;3.788;2023-09-07T14:04:27;28.90;99.90
27226;DHT22;14732;51.074;3.788;2023-09-07T14:06:54;28.80;99.90
27226;DHT22;14732;51.074;3.788;2023-09-07T14:09:19;28.40;99.90
27226;DHT22;14732;51.074;3.788;2023-09-07T14:11:48;28.60;99.90
27226;DHT22;14732;51.074;3.788;2023-09-07T14:14:14;28.40;99.90
27226;DHT22;14732;51.074;3.788;2023-09-07T14:16:40;28.50;99.90
27226;DHT22;14732;51.074;3.788;2023-09-07T14:19:06;28.50;99.90
27226;DHT22;14732;51.074;3.788;2023-09-07T14:21:32;28.50;99.90
27226;DHT22;14732;51.074;3.788;2023-09-07T14:23:57;28.40;99.90
27226;DHT22;14732;51.074;3.788;2023-09-07T14:26:23;28.20;99.90
27226;DHT22;14732;51.074;3.788;2023-09-07T14:28:49;28.10;99.90
27226;DHT22;14732;51.074;3.788;2023-09-07T14:31:15;28.20;99.90
27226;DHT22;14732;51.074;3.788;2023-09-07T14:33:41;28.50;99.90
27226;DHT22;14732;51.074;3.788;2023-09-07T14:36:08;28.60;99.90
27226;DHT22;14732;51.074;3.788;2023-09-07T14:38:37;28.70;99.90
27226;DHT22;14732;51.074;3.788;2023-09-07T14:41:07;29.00;99.90
27226;DHT22;14732;51.074;3.788;2023-09-07T14:43:33;29.00;99.90
27226;DHT22;14732;51.074;3.788;2023-09-07T14:45:59;29.00;99.90
27226;DHT22;14732;51.074;3.788;2023-09-07T14:48:25;29.20;99.90
27226;DHT22;14732;51.074;3.788;2023-09-07T14:50:50;29.50;99.90
27226;DHT22;14732;51.074;3.788;2023-09-07T14:53:16;29.30;99.90
27226;DHT22;14732;51.074;3.788;2023-09-07T14:55:43;29.60;99.90
27226;DHT22;14732;51.074;3.788;2023-09-07T14:58:09;29.50;99.90
27226;DHT22;14732;51.074;3.788;2023-09-07T15:00:35;29.40;99.90
27226;DHT22;14732;51.074;3.788;2023-09-07T15:03:01;29.30;99.90
27226;DHT22;14732;51.074;3.788;2023-09-07T15:05:27;29.40;99.90
27226;DHT22;14732;51.074;3.788;2023-09-07T15:07:54;29.30;99.90
27226;DHT22;14732;51.074;3.788;2023-09-07T15:10:19;29.50;99.90
27226;DHT22;14732;51.074;3.788;2023-09-07T15:12:45;29.60;99.90
27226;DHT22;14732;51.074;3.788;2023-09-07T15:15:11;29.70;99.90
27226;DHT22;14732;51.074;3.788;2023-09-07T15:17:43;29.40;99.90
27226;DHT22;14732;51.074;3.788;2023-09-07T15:20:09;29.30;99.90
27226;DHT22;14732;51.074;3.788;2023-09-07T15:22:35;29.10;99.90
27226;DHT22;14732;51.074;3.788;2023-09-07T15:25:00;29.20;99.90
27226;DHT22;14732;51.074;3.788;2023-09-07T15:27:26;29.20;99.90
27226;DHT22;14732;51.074;3.788;2023-09-07T15:29:52;29.40;99.90